首页
METAR-TAF:

METAR-TAF

机场 :

New Richmond Regional Airport

New Richmond, 威斯康辛州, 美国

纬度: 45-08-54N, 经度: 092-32-17W, 海拔: 304米

当前天气观测

该预报发布于17分钟前的19:55 UTC
风速12节,风向东南,有时为18节阵风
温度 15°C
湿度 44%
气压 1014 hPa
能見度: 16.1公里
阴天层高于9000英尺

METAR: KRNH 021955Z AUTO 14012G18KT 10SM OVC090 15/03 A2995 RMK AO2 T01480028

时间: 15:12 (20:12 UTC)

预报

该预报发布于2小时和38分钟前的17:34 UTC
预报有效从02日的 18点(UTC)到 03日的 18点(UTC)
风速12节,风向东南,有时为20节阵风
能見度: 10公里
散云层高于6000英尺
多云层高于12000英尺
从 03日的 0400点(UTC)
风速8节,风向南转南东
能見度: 6.4公里
阴天层高于2500英尺
小雨
从 03日的 0600点(UTC)
风速8节,风向
能見度: 6.4公里
阴天层高于800英尺
小雨
从 03日的 1100点(UTC)
风速9节,风向西
能見度: 6.4公里
阴天层高于700英尺
小雨
从 03日的 1600点(UTC)
风速9节,风向西转西北
能見度: 6.4公里
阴天层高于700英尺
(小) 冻, 雨

TAF: KRNH 021734Z 0218/0318 14012G20KT P6SM SCT060 BKN120 FM030400 15008KT 4SM -RA OVC025 FM030600 18008KT 4SM -RA OVC008 FM031100 28009KT 4SM -RA OVC007 FM031600 30009KT 4SM -FZRA OVC007

超过4000个机场的气象观测和天气预报(METAR&TAF报告)。

可查询的气象台以黄色和红色小点在地图上表示。

将鼠标移到小点上方,可查看气象台名称。

然后点击查看天气观测和预报。

如需切换地图:点击带黑十字的绿色按钮放大地图;点击带横线的绿色按钮缩小地图;或者点击绿色箭头查看邻近地区的地图。


METAR-TAF: